Time;durP1;ratioP1;P1;durP2;ratioP2;P2;SDS_P1;SDS_P2;PMS_P1;PMS_P2;Temp;Humidity;BMP_temperature;BMP_pressure;BME280_temperature;BME280_humidity;BME280_pressure;Samples;Min_cycle;Max_cycle;Signal;HPM_P1;HPM_P2
2022/09/07 00:00:29;;;;;;;7.28;3.08;;;;;;;14.85;51.75;98724.97;5048309;28;20505;-74
2022/09/07 00:02:54;;;;;;;4.15;2.60;;;;;;;14.84;51.65;98728.88;5049502;28;20481;-74
2022/09/07 00:05:20;;;;;;;6.30;2.90;;;;;;;14.81;51.34;98731.44;5048918;28;20028;-74
2022/09/07 00:07:45;;;;;;;5.75;2.90;;;;;;;14.80;51.75;98727.03;5048792;28;20393;-73
2022/09/07 00:10:11;;;;;;;7.40;3.00;;;;;;;14.79;51.69;98728.19;5049222;28;20112;-74
2022/09/07 00:12:36;;;;;;;7.00;2.78;;;;;;;14.77;51.40;98725.75;5048887;28;20021;-73
2022/09/07 00:15:07;;;;;;;8.75;3.03;;;;;;;14.76;51.65;98729.63;5048751;28;20021;-73
2022/09/07 00:17:33;;;;;;;6.68;2.67;;;;;;;14.72;51.21;98717.59;5046194;28;20358;-74
2022/09/07 00:19:58;;;;;;;4.90;2.53;;;;;;;14.68;51.23;98730.38;5049124;28;20469;-74
2022/09/07 00:22:24;;;;;;;5.50;2.50;;;;;;;14.65;51.36;98739.28;5049453;28;20071;-74
2022/09/07 00:24:49;;;;;;;4.85;2.78;;;;;;;14.61;51.45;98730.84;5049379;28;20044;-74
2022/09/07 00:27:14;;;;;;;4.95;2.63;;;;;;;14.59;51.42;98741.38;5048216;28;20584;-74
2022/09/07 00:29:40;;;;;;;8.18;2.80;;;;;;;14.57;51.39;98733.41;5049806;28;20037;-73
2022/09/07 00:32:06;;;;;;;4.63;2.80;;;;;;;14.56;51.21;98745.56;5049766;28;20067;-74
2022/09/07 00:34:31;;;;;;;6.05;2.50;;;;;;;14.53;51.13;98737.91;5047220;28;20032;-74
2022/09/07 00:36:57;;;;;;;4.03;2.40;;;;;;;14.51;51.38;98740.19;5049363;28;20074;-74
2022/09/07 00:39:22;;;;;;;4.15;2.60;;;;;;;14.50;51.51;98735.78;5049703;28;20032;-73
2022/09/07 00:41:47;;;;;;;5.30;2.83;;;;;;;14.51;51.57;98733.84;5049263;28;20028;-74
2022/09/07 00:44:41;;;;;;;5.30;2.67;;;;;;;14.48;51.62;98734.47;5048898;28;20045;-74
2022/09/07 00:47:11;;;;;;;5.40;2.60;;;;;;;14.48;51.26;98737.25;5049180;28;20036;-74
2022/09/07 00:49:38;;;;;;;5.45;2.85;;;;;;;14.45;51.48;98738.69;5048928;28;20047;-73
2022/09/07 00:52:06;;;;;;;5.13;2.55;;;;;;;14.43;51.41;98735.44;5051237;28;20029;-74
2022/09/07 00:54:48;;;;;;;5.78;2.90;;;;;;;14.41;51.57;98741.25;5052382;28;20057;-74
2022/09/07 00:57:14;;;;;;;5.07;2.58;;;;;;;14.42;51.49;98742.09;5053055;28;20025;-74
2022/09/07 00:59:46;;;;;;;4.53;2.40;;;;;;;14.41;51.67;98732.97;5053623;28;20480;-74
2022/09/07 01:02:15;;;;;;;4.55;2.63;;;;;;;14.39;51.45;98734.44;5053117;28;20029;-74
2022/09/07 01:04:42;;;;;;;4.97;2.53;;;;;;;14.37;51.28;98731.19;5052704;28;20033;-74
2022/09/07 01:07:08;;;;;;;5.53;2.60;;;;;;;14.31;51.33;98724.94;5053089;28;20118;-73
2022/09/07 01:09:34;;;;;;;4.80;2.47;;;;;;;14.27;51.54;98721.19;5052919;28;20107;-74
2022/09/07 01:12:01;;;;;;;4.78;2.40;;;;;;;14.25;51.64;98723.47;5052745;28;20384;-74
2022/09/07 01:14:30;;;;;;;4.43;2.38;;;;;;;14.22;51.72;98724.09;5052654;28;20493;-74
2022/09/07 01:17:14;;;;;;;3.95;2.17;;;;;;;14.18;51.46;98714.81;5050285;28;20025;-74
2022/09/07 01:20:24;;;;;;;4.18;2.30;;;;;;;14.09;51.67;98714.75;5050341;28;20021;-74
2022/09/07 01:23:28;;;;;;;4.55;2.13;;;;;;;14.02;51.73;98717.16;5044132;28;20500;-74
2022/09/07 01:26:15;;;;;;;4.47;2.38;;;;;;;13.99;51.62;98724.09;5050262;28;20034;-74
2022/09/07 01:28:41;;;;;;;5.47;2.35;;;;;;;13.95;51.65;98721.16;5050949;28;20029;-74
2022/09/07 01:31:41;;;;;;;4.43;2.30;;;;;;;13.90;51.81;98718.50;5050597;28;20468;-74
2022/09/07 01:34:15;;;;;;;4.97;2.20;;;;;;;13.87;51.80;98710.03;5050007;28;20500;-74
2022/09/07 01:36:48;;;;;;;5.68;2.28;;;;;;;13.82;51.56;98710.97;5051821;28;20536;-74
2022/09/07 01:39:16;;;;;;;4.97;2.20;;;;;;;13.78;51.82;98716.31;5051666;28;20128;-73
2022/09/07 01:41:57;;;;;;;2.97;2.05;;;;;;;13.73;51.72;98719.19;5052485;28;20473;-74
2022/09/07 01:44:44;;;;;;;3.83;2.30;;;;;;;13.66;51.88;98727.84;5049899;28;20053;-73
2022/09/07 01:47:16;;;;;;;5.65;2.00;;;;;;;13.62;51.99;98720.53;5051717;28;20119;-74
2022/09/07 01:49:47;;;;;;;4.07;2.00;;;;;;;13.60;52.00;98725.53;5052482;28;20112;-73
2022/09/07 01:52:27;;;;;;;4.25;2.40;;;;;;;13.52;51.82;98716.88;5052274;28;20032;-74
2022/09/07 01:55:04;;;;;;;4.63;2.30;;;;;;;13.49;51.91;98711.19;5052012;28;20032;-74
2022/09/07 01:57:35;;;;;;;4.60;2.08;;;;;;;13.42;51.77;98697.84;5052061;28;20039;-74
2022/09/07 02:00:11;;;;;;;4.45;2.30;;;;;;;13.31;51.74;98701.91;5052521;28;20064;-74
2022/09/07 02:02:47;;;;;;;5.00;2.03;;;;;;;13.24;51.89;98696.81;5050986;28;20021;-74
2022/09/07 02:05:19;;;;;;;5.05;2.20;;;;;;;13.16;51.81;98701.09;5051789;28;20061;-74
2022/09/07 02:07:51;;;;;;;6.15;2.22;;;;;;;13.07;51.64;98695.50;5051569;28;20033;-73
2022/09/07 02:10:25;;;;;;;4.55;2.08;;;;;;;13.03;51.70;98696.44;5052475;28;20036;-74
2022/09/07 02:13:11;;;;;;;6.82;2.22;;;;;;;12.98;51.50;98694.56;5051716;28;20051;-74
2022/09/07 02:16:16;;;;;;;4.03;2.08;;;;;;;12.95;51.59;98695.19;5043969;28;20041;-73
2022/09/07 02:18:50;;;;;;;3.38;2.20;;;;;;;12.97;51.58;98686.63;5052136;28;20443;-74
2022/09/07 02:21:20;;;;;;;4.75;2.17;;;;;;;12.96;51.89;98685.81;5051870;28;20021;-74
2022/09/07 02:23:51;;;;;;;4.60;2.30;;;;;;;12.98;51.73;98691.81;5051103;28;20495;-74
2022/09/07 02:26:21;;;;;;;4.50;2.17;;;;;;;12.99;51.90;98684.38;5051271;28;20036;-73
2022/09/07 02:28:47;;;;;;;5.32;2.30;;;;;;;13.00;51.66;98681.31;5050384;28;20033;-74
2022/09/07 02:31:13;;;;;;;5.22;2.50;;;;;;;13.04;52.08;98684.28;5051578;28;20021;-74
2022/09/07 02:33:40;;;;;;;3.65;2.30;;;;;;;13.05;51.54;98683.13;5050680;28;20029;-73
2022/09/07 02:36:06;;;;;;;5.45;2.78;;;;;;;13.04;51.75;98681.53;5051492;28;20016;-74
2022/09/07 02:38:33;;;;;;;5.07;2.80;;;;;;;13.02;51.75;98687.34;5052325;28;20074;-74
2022/09/07 02:41:00;;;;;;;6.95;2.90;;;;;;;13.00;51.81;98683.28;5051647;28;20025;-73
2022/09/07 02:43:28;;;;;;;4.07;2.67;;;;;;;13.00;51.87;98683.28;5050315;28;20060;-74
2022/09/07 02:46:12;;;;;;;5.03;2.88;;;;;;;13.03;51.66;98680.72;5051790;28;20083;-73
2022/09/07 02:48:56;;;;;;;5.18;2.70;;;;;;;13.04;51.70;98679.59;5051822;28;20086;-73
2022/09/07 02:51:29;;;;;;;6.03;2.72;;;;;;;13.02;51.50;98675.53;5051297;28;20055;-74
2022/09/07 02:54:12;;;;;;;4.88;2.83;;;;;;;13.04;51.65;98676.03;5051031;28;20543;-73
2022/09/07 02:56:41;;;;;;;3.83;2.45;;;;;;;13.06;51.60;98671.00;5051373;28;20079;-73
2022/09/07 02:59:42;;;;;;;4.90;2.60;;;;;;;13.07;51.89;98661.63;5051493;28;20033;-74
2022/09/07 03:02:27;;;;;;;4.60;2.55;;;;;;;13.06;51.46;98657.22;5038841;28;20041;-73
2022/09/07 03:05:00;;;;;;;3.85;2.40;;;;;;;13.06;51.51;98660.81;5051108;28;20076;-74
2022/09/07 03:07:34;;;;;;;3.78;2.42;;;;;;;13.05;51.40;98663.88;5050787;28;20029;-74
2022/09/07 03:10:03;;;;;;;4.20;2.40;;;;;;;12.99;51.38;98656.84;5051312;28;20053;-73
2022/09/07 03:12:46;;;;;;;3.97;2.47;;;;;;;12.95;51.76;98662.16;5050525;28;20091;-73
2022/09/07 03:15:21;;;;;;;8.77;2.63;;;;;;;12.96;51.22;98658.28;5050831;28;20044;-73
2022/09/07 03:17:47;;;;;;;4.18;2.13;;;;;;;12.91;51.30;98655.63;5050778;28;20032;-73
2022/09/07 03:20:15;;;;;;;4.38;2.30;;;;;;;12.89;51.37;98655.13;5051178;28;20032;-73
2022/09/07 03:22:40;;;;;;;6.60;2.42;;;;;;;12.89;51.30;98666.13;5050638;28;20082;-73
2022/09/07 03:25:06;;;;;;;4.78;2.58;;;;;;;12.89;51.67;98671.63;5049625;28;20037;-74
2022/09/07 03:27:32;;;;;;;3.92;2.50;;;;;;;12.89;51.72;98675.22;5050363;28;20111;-73
2022/09/07 03:29:58;;;;;;;4.72;2.75;;;;;;;12.91;51.36;98670.22;5050525;28;20112;-73
2022/09/07 03:32:28;;;;;;;3.92;2.53;;;;;;;12.94;51.47;98677.03;5050157;28;20087;-73
2022/09/07 03:34:54;;;;;;;5.32;2.90;;;;;;;12.93;51.40;98678.16;5050457;28;20071;-73
2022/09/07 03:37:19;;;;;;;4.55;2.67;;;;;;;12.90;51.13;98684.28;5050617;28;20033;-74
2022/09/07 03:39:45;;;;;;;5.45;2.70;;;;;;;12.86;51.15;98686.00;5050645;28;20440;-74
2022/09/07 03:42:10;;;;;;;3.20;2.35;;;;;;;12.85;51.43;98687.94;5050247;28;20821;-74
2022/09/07 03:44:36;;;;;;;4.57;2.53;;;;;;;12.83;51.54;98687.44;5050388;28;20443;-74
2022/09/07 03:47:01;;;;;;;3.00;2.05;;;;;;;12.83;51.64;98686.63;5050476;28;20414;-74
2022/09/07 03:49:27;;;;;;;4.47;2.70;;;;;;;12.81;51.52;98684.19;5050215;28;20021;-74
2022/09/07 03:51:52;;;;;;;5.18;2.25;;;;;;;12.80;51.16;98691.63;5050643;28;20495;-74
2022/09/07 03:54:17;;;;;;;4.57;2.20;;;;;;;12.79;51.78;98692.75;5050443;28;20017;-73
2022/09/07 03:56:43;;;;;;;4.55;2.53;;;;;;;12.78;51.61;98691.13;5050437;28;20772;-73
2022/09/07 03:59:08;;;;;;;4.25;2.47;;;;;;;12.76;51.71;98687.84;5050428;28;20511;-74
2022/09/07 04:01:34;;;;;;;4.00;2.28;;;;;;;12.75;51.76;98697.22;5050248;28;20028;-73
2022/09/07 04:04:01;;;;;;;5.07;2.70;;;;;;;12.74;51.59;98697.53;5050110;28;20021;-74
2022/09/07 04:06:27;;;;;;;4.18;2.45;;;;;;;12.75;51.37;98705.50;5050218;28;20029;-73
2022/09/07 04:08:55;;;;;;;4.50;2.60;;;;;;;12.78;51.74;98712.31;5049958;28;20494;-74
2022/09/07 04:11:20;;;;;;;4.47;2.53;;;;;;;12.78;51.56;98704.88;5050050;28;20017;-74
2022/09/07 04:13:46;;;;;;;4.25;2.40;;;;;;;12.78;51.23;98695.78;5049604;28;20033;-74
2022/09/07 04:16:23;;;;;;;5.60;2.80;;;;;;;12.76;51.68;98690.59;5050457;28;20433;-74
2022/09/07 04:18:49;;;;;;;8.10;2.70;;;;;;;12.78;51.99;98684.78;5049986;28;20032;-74
2022/09/07 04:21:16;;;;;;;6.05;2.78;;;;;;;12.83;51.39;98698.44;5048472;28;20021;-73
2022/09/07 04:23:44;;;;;;;5.38;2.67;;;;;;;12.87;51.55;98698.66;5049595;28;20029;-74
2022/09/07 04:26:16;;;;;;;4.13;2.78;;;;;;;12.91;51.55;98688.66;5049824;28;20068;-74
2022/09/07 04:28:41;;;;;;;4.82;2.83;;;;;;;12.92;52.01;98691.13;5053879;28;20036;-74
2022/09/07 04:31:07;;;;;;;3.85;2.47;;;;;;;12.93;51.97;98690.00;5054282;28;20029;-74
2022/09/07 04:33:33;;;;;;;6.03;2.72;;;;;;;12.97;51.70;98684.69;5053751;28;20477;-73
2022/09/07 04:36:00;;;;;;;5.55;2.90;;;;;;;13.00;51.91;98678.56;5053714;28;20033;-73
2022/09/07 04:38:26;;;;;;;6.90;3.20;;;;;;;13.01;51.78;98677.44;5054341;28;20126;-74
2022/09/07 04:41:00;;;;;;;5.10;3.15;;;;;;;13.03;52.34;98675.19;5053965;28;20370;-74
2022/09/07 04:43:26;;;;;;;4.18;2.65;;;;;;;13.06;51.81;98682.00;5053393;28;20163;-74
2022/09/07 04:45:52;;;;;;;5.70;2.90;;;;;;;13.07;52.26;98676.22;5053723;28;20028;-74
2022/09/07 04:48:17;;;;;;;4.93;3.20;;;;;;;13.07;52.26;98676.22;5053588;28;20040;-74
2022/09/07 04:50:43;;;;;;;5.53;2.85;;;;;;;13.07;51.94;98678.97;5052624;28;20032;-73
2022/09/07 04:53:08;;;;;;;5.32;2.92;;;;;;;13.05;52.18;98678.47;5053639;28;20024;-74
2022/09/07 04:55:33;;;;;;;6.22;2.90;;;;;;;13.03;52.00;98679.91;5053112;28;20032;-74
2022/09/07 04:57:59;;;;;;;4.43;2.53;;;;;;;12.97;52.14;98683.88;5053677;28;20039;-74
2022/09/07 05:00:25;;;;;;;7.22;2.67;;;;;;;12.92;51.97;98702.13;5053886;28;20031;-74
2022/09/07 05:02:51;;;;;;;5.75;2.30;;;;;;;12.89;52.21;98693.66;5053262;28;20044;-74
2022/09/07 05:05:17;;;;;;;5.05;2.78;;;;;;;12.89;52.12;98694.47;5053691;28;20033;-74
2022/09/07 05:07:43;;;;;;;5.55;2.78;;;;;;;12.88;52.50;98694.78;5053838;28;20040;-74
2022/09/07 05:10:09;;;;;;;6.10;2.97;;;;;;;12.88;52.53;98694.78;5051376;28;20029;-74
2022/09/07 05:12:34;;;;;;;5.38;2.72;;;;;;;12.86;52.88;98692.34;5052882;28;20481;-74
2022/09/07 05:15:00;;;;;;;4.63;2.78;;;;;;;12.85;52.40;98695.38;5052112;28;20151;-74
2022/09/07 05:17:27;;;;;;;6.55;3.15;;;;;;;12.78;52.61;98691.13;5053335;28;20095;-74
2022/09/07 05:19:53;;;;;;;4.95;2.53;;;;;;;12.80;52.46;98688.88;5051586;28;20603;-73
2022/09/07 05:22:19;;;;;;;4.97;3.15;;;;;;;12.80;52.37;98688.06;5049701;28;20044;-73
2022/09/07 05:24:46;;;;;;;5.82;3.00;;;;;;;12.82;52.89;98696.81;5051589;28;20126;-73
2022/09/07 05:27:11;;;;;;;5.15;3.00;;;;;;;12.79;52.68;98683.66;5052871;28;20057;-73
2022/09/07 05:29:36;;;;;;;6.03;3.33;;;;;;;12.76;52.61;98684.28;5052729;28;20028;-73
2022/09/07 05:32:02;;;;;;;4.75;2.95;;;;;;;12.76;52.79;98684.28;5052199;28;20036;-73
2022/09/07 05:34:28;;;;;;;6.30;3.30;;;;;;;12.76;52.49;98685.09;5052524;28;20029;-72
2022/09/07 05:36:53;;;;;;;7.70;3.60;;;;;;;12.73;52.92;98682.97;5052875;28;20363;-74
2022/09/07 05:39:20;;;;;;;6.10;3.25;;;;;;;12.72;52.81;98686.84;5052007;28;20029;-74
2022/09/07 05:41:45;;;;;;;7.78;3.20;;;;;;;12.74;53.49;98678.25;5051948;28;20086;-74
2022/09/07 05:44:11;;;;;;;6.63;3.40;;;;;;;12.78;53.10;98669.09;5051448;28;20045;-73
2022/09/07 05:46:37;;;;;;;6.82;3.45;;;;;;;12.79;53.09;98673.50;5052902;28;20515;-74
2022/09/07 05:49:02;;;;;;;5.68;3.35;;;;;;;12.83;53.12;98676.44;5052818;28;20051;-73
2022/09/07 05:51:28;;;;;;;5.75;3.53;;;;;;;12.86;52.98;98669.50;5051970;28;20021;-73
2022/09/07 05:53:55;;;;;;;5.22;2.92;;;;;;;12.88;53.43;98676.34;5052553;28;20091;-74
2022/09/07 05:56:20;;;;;;;9.50;3.33;;;;;;;12.95;53.13;98679.50;5052637;28;20025;-73
2022/09/07 05:58:49;;;;;;;6.38;3.50;;;;;;;13.02;53.31;98681.03;5051907;28;20047;-73
2022/09/07 06:01:15;;;;;;;7.43;3.65;;;;;;;13.07;53.54;98669.88;5051465;28;20013;-73
2022/09/07 06:03:41;;;;;;;6.05;3.50;;;;;;;13.07;53.54;98675.38;5050806;28;20432;-73
2022/09/07 06:06:09;;;;;;;7.45;3.58;;;;;;;13.07;53.60;98673.47;5051948;28;20044;-74
2022/09/07 06:08:37;;;;;;;5.93;3.30;;;;;;;13.10;53.50;98675.59;5052069;28;20029;-73
2022/09/07 06:11:09;;;;;;;5.40;3.45;;;;;;;13.17;53.43;98671.63;5051822;28;20520;-74
2022/09/07 06:13:35;;;;;;;6.43;3.17;;;;;;;13.23;53.74;98678.66;5051300;28;20401;-73
2022/09/07 06:16:06;;;;;;;5.65;3.20;;;;;;;13.27;53.35;98671.38;5052029;28;20033;-73
2022/09/07 06:18:34;;;;;;;4.75;2.85;;;;;;;13.31;53.67;98668.84;5052542;28;20029;-74
2022/09/07 06:21:14;;;;;;;5.50;3.00;;;;;;;13.34;53.29;98673.75;5051891;28;20071;-74
2022/09/07 06:23:41;;;;;;;6.53;3.20;;;;;;;13.39;53.71;98668.13;5049639;28;20112;-73
2022/09/07 06:26:07;;;;;;;6.30;3.08;;;;;;;13.45;53.71;98664.13;5045905;28;20124;-73
2022/09/07 06:28:35;;;;;;;6.60;3.45;;;;;;;13.50;53.76;98657.69;5050811;28;20024;-73
2022/09/07 06:31:08;;;;;;;5.75;3.20;;;;;;;13.57;53.72;98671.88;5050419;28;20041;-73
2022/09/07 06:33:34;;;;;;;8.00;3.10;;;;;;;13.65;53.67;98662.84;5048502;28;20090;-73
2022/09/07 06:36:05;;;;;;;7.18;3.50;;;;;;;13.68;53.72;98651.19;5048133;28;20210;-73
2022/09/07 06:38:33;;;;;;;5.85;3.38;;;;;;;13.67;53.57;98649.56;5051532;28;20523;-73
2022/09/07 06:41:05;;;;;;;7.80;3.25;;;;;;;13.68;53.75;98644.88;5050811;28;20075;-74
2022/09/07 06:43:30;;;;;;;7.53;3.35;;;;;;;13.70;53.89;98637.91;5049814;28;20130;-74
2022/09/07 06:45:56;;;;;;;6.88;3.45;;;;;;;13.75;54.10;98639.75;5052448;28;20024;-73
2022/09/07 06:48:22;;;;;;;6.72;3.40;;;;;;;13.81;54.12;98646.78;5046917;28;20508;-74
2022/09/07 06:51:15;;;;;;;6.35;3.33;;;;;;;13.89;54.29;98645.19;5048895;28;20036;-73
2022/09/07 06:53:41;;;;;;;6.03;3.13;;;;;;;14.00;54.49;98648.50;5047076;28;20324;-75
2022/09/07 06:56:12;;;;;;;7.60;3.38;;;;;;;14.06;54.55;98649.22;5049615;28;20047;-74
2022/09/07 06:58:38;;;;;;;5.30;3.35;;;;;;;14.13;54.84;98660.59;5050808;28;20112;-75
2022/09/07 07:01:14;;;;;;;6.65;3.58;;;;;;;14.18;54.73;98668.72;5051692;28;20029;-73
2022/09/07 07:03:41;;;;;;;5.72;3.22;;;;;;;14.29;54.44;98656.31;5049864;28;20033;-71
2022/09/07 07:06:07;;;;;;;6.60;3.30;;;;;;;14.36;54.74;98663.34;5050685;28;20102;-72
2022/09/07 07:08:32;;;;;;;5.60;3.47;;;;;;;14.45;54.62;98658.69;5050379;28;20398;-72
2022/09/07 07:11:10;;;;;;;7.70;3.40;;;;;;;14.55;54.79;98657.56;5048916;28;20027;-71
2022/09/07 07:13:36;;;;;;;7.38;4.97;;;;;;;14.64;55.00;98657.59;5049555;28;20059;-71
2022/09/07 07:16:13;;;;;;;7.63;3.25;;;;;;;14.71;54.60;98658.78;5050876;28;20041;-71
2022/09/07 07:18:40;;;;;;;6.93;3.85;;;;;;;14.72;54.46;98660.44;5050041;28;20103;-71
2022/09/07 07:21:09;;;;;;;5.05;3.22;;;;;;;14.76;54.72;98659.78;5049715;28;20036;-69
2022/09/07 07:23:35;;;;;;;9.27;3.70;;;;;;;14.82;54.69;98661.28;5050773;28;20587;-71
2022/09/07 07:26:02;;;;;;;7.80;3.60;;;;;;;14.90;54.63;98666.03;5049625;28;20057;-72
2022/09/07 07:28:28;;;;;;;8.82;3.90;;;;;;;14.96;54.72;98661.97;5049709;28;20477;-71
2022/09/07 07:30:55;;;;;;;7.55;4.20;;;;;;;15.04;54.69;98665.91;5048310;28;20103;-71
2022/09/07 07:33:20;;;;;;;6.30;3.80;;;;;;;15.13;55.17;98661.22;5048631;28;20032;-71
2022/09/07 07:35:46;;;;;;;5.57;3.83;;;;;;;15.21;54.75;98667.88;5048348;28;20028;-71
2022/09/07 07:38:11;;;;;;;7.10;4.65;;;;;;;15.29;54.80;98666.25;5049150;28;20029;-71
2022/09/07 07:40:37;;;;;;;6.25;4.07;;;;;;;15.39;55.10;98671.47;5048356;28;20035;-70
2022/09/07 07:43:02;;;;;;;8.90;4.32;;;;;;;15.50;54.95;98674.75;5050434;28;20033;-70
2022/09/07 07:45:28;;;;;;;6.47;3.55;;;;;;;15.55;54.67;98673.78;5046384;28;20062;-70
2022/09/07 07:47:53;;;;;;;7.68;4.28;;;;;;;15.64;55.04;98669.09;5048334;28;20036;-71
2022/09/07 07:50:19;;;;;;;6.60;3.90;;;;;;;15.72;55.41;98672.97;5047689;28;20029;-71
2022/09/07 07:52:44;;;;;;;8.25;4.18;;;;;;;15.81;55.40;98673.78;5045944;28;20473;-70
2022/09/07 07:55:09;;;;;;;8.13;3.97;;;;;;;15.90;55.34;98671.84;5049085;28;20096;-70
2022/09/07 07:57:35;;;;;;;6.30;4.10;;;;;;;16.02;55.17;98662.06;5046788;28;20043;-71
2022/09/07 08:00:01;;;;;;;6.65;4.65;;;;;;;16.11;55.34;98671.19;5048266;28;20123;-74
2022/09/07 08:02:26;;;;;;;6.68;4.47;;;;;;;16.21;55.27;98670.03;5047775;28;20025;-72
2022/09/07 08:04:51;;;;;;;8.32;4.40;;;;;;;16.31;55.72;98672.44;5046630;28;20492;-73
2022/09/07 08:07:18;;;;;;;8.10;4.22;;;;;;;16.41;55.78;98668.50;5046746;28;20025;-73
2022/09/07 08:09:46;;;;;;;7.47;4.07;;;;;;;16.51;55.46;98665.38;5047639;28;20033;-72
2022/09/07 08:12:15;;;;;;;7.88;4.40;;;;;;;16.62;55.72;98665.84;5045783;28;20036;-70
2022/09/07 08:14:41;;;;;;;9.13;4.47;;;;;;;16.73;55.76;98671.00;5047981;28;20078;-71
2022/09/07 08:17:10;;;;;;;8.57;4.45;;;;;;;16.84;55.81;98672.28;5047646;28;20029;-70
2022/09/07 08:19:36;;;;;;;8.27;4.03;;;;;;;16.93;56.13;98661.94;5047189;28;20029;-69
2022/09/07 08:22:02;;;;;;;8.95;4.80;;;;;;;17.03;55.65;98659.97;5045796;28;20044;-69
2022/09/07 08:24:29;;;;;;;10.35;4.47;;;;;;;17.12;55.97;98660.75;5045572;28;20040;-69
2022/09/07 08:26:54;;;;;;;7.07;4.60;;;;;;;17.21;55.68;98666.22;5047376;28;20044;-71
2022/09/07 08:29:20;;;;;;;7.75;4.43;;;;;;;17.25;55.52;98654.16;5046285;28;20033;-71
2022/09/07 08:31:45;;;;;;;7.80;4.38;;;;;;;17.31;55.53;98662.28;5046326;28;20115;-69
2022/09/07 08:34:10;;;;;;;11.15;6.53;;;;;;;17.37;55.43;98647.03;5045987;28;20468;-70
2022/09/07 08:36:36;;;;;;;10.48;5.85;;;;;;;17.44;55.35;98650.09;5045951;28;20027;-71
2022/09/07 08:39:01;;;;;;;7.72;5.05;;;;;;;17.51;55.53;98647.59;5045280;28;20025;-72
2022/09/07 08:42:01;;;;;;;8.55;4.40;;;;;;;17.63;55.67;98640.50;5046773;28;20045;-72
2022/09/07 08:44:32;;;;;;;7.93;4.93;;;;;;;17.75;55.58;98634.97;5047006;28;20060;-72
2022/09/07 08:47:02;;;;;;;8.45;5.35;;;;;;;17.85;56.05;98642.09;5046193;28;20130;-72
2022/09/07 08:50:05;;;;;;;10.35;4.50;;;;;;;17.95;55.86;98638.88;5048564;28;20060;-72
2022/09/07 08:52:39;;;;;;;9.10;4.97;;;;;;;18.07;55.88;98651.22;5048336;28;20033;-70
2022/09/07 08:55:17;;;;;;;8.20;4.45;;;;;;;18.19;56.03;98642.94;5047978;28;20032;-71
2022/09/07 08:57:54;;;;;;;9.00;4.95;;;;;;;18.30;55.83;98646.06;5047653;28;20041;-72
2022/09/07 09:00:20;;;;;;;6.60;4.72;;;;;;;18.39;55.79;98644.03;5047785;28;20488;-72
2022/09/07 09:02:46;;;;;;;7.88;4.65;;;;;;;18.49;55.80;98647.53;5049701;28;20044;-71
2022/09/07 09:05:52;;;;;;;12.65;4.90;;;;;;;18.58;55.64;98645.44;5051050;28;20037;-72
2022/09/07 09:08:50;;;;;;;6.40;4.60;;;;;;;18.66;55.63;98641.75;5049088;28;20029;-72
2022/09/07 09:11:18;;;;;;;8.38;4.72;;;;;;;18.76;55.69;98640.47;5045900;28;20032;-72
2022/09/07 09:14:01;;;;;;;9.73;5.80;;;;;;;18.79;55.45;98631.44;5050779;28;20585;-72
2022/09/07 09:17:22;;;;;;;8.70;5.07;;;;;;;18.86;55.71;98631.66;5048774;28;20542;-69
2022/09/07 09:20:09;;;;;;;9.63;5.10;;;;;;;18.98;55.75;98636.44;5040434;28;20040;-72
2022/09/07 09:22:34;;;;;;;6.57;5.07;;;;;;;19.12;55.75;98632.50;5050457;28;20036;-72
2022/09/07 09:25:13;;;;;;;9.70;5.53;;;;;;;19.21;55.84;98640.69;5050431;28;20025;-71
2022/09/07 09:27:38;;;;;;;8.07;5.25;;;;;;;19.30;55.96;98639.44;5050253;28;20029;-71
2022/09/07 09:30:23;;;;;;;7.18;4.90;;;;;;;19.39;55.79;98632.91;5053770;28;20535;-72
2022/09/07 09:32:51;;;;;;;7.78;5.20;;;;;;;19.49;55.75;98629.66;5053359;28;20039;-71
2022/09/07 09:35:33;;;;;;;9.43;5.18;;;;;;;19.56;55.67;98631.84;5052274;28;20535;-72
2022/09/07 09:38:02;;;;;;;8.45;5.15;;;;;;;19.66;55.44;98625.75;5052092;28;20021;-71
2022/09/07 09:40:35;;;;;;;7.97;5.13;;;;;;;19.73;55.47;98625.97;5049325;28;20033;-70
2022/09/07 09:43:04;;;;;;;8.27;5.78;;;;;;;19.78;55.34;98624.91;5051242;28;20037;-71
2022/09/07 09:45:41;;;;;;;7.68;5.20;;;;;;;19.85;55.16;98616.75;5051558;28;20040;-71
2022/09/07 09:48:16;;;;;;;8.40;5.55;;;;;;;19.90;55.27;98619.31;5051480;28;20035;-72
2022/09/07 09:50:48;;;;;;;9.25;5.28;;;;;;;19.97;54.90;98612.34;5052290;28;20035;-69
2022/09/07 09:53:25;;;;;;;6.72;5.63;;;;;;;20.07;55.35;98614.63;5052819;28;20147;-70
2022/09/07 09:55:52;;;;;;;7.97;4.85;;;;;;;20.17;55.38;98614.09;5052758;28;20075;-70
2022/09/07 09:58:36;;;;;;;9.48;5.50;;;;;;;20.25;55.35;98617.88;5052270;28;20504;-70
2022/09/07 10:01:06;;;;;;;9.15;5.68;;;;;;;20.31;55.03;98613.66;5052998;28;20044;-70
2022/09/07 10:03:34;;;;;;;8.00;4.80;;;;;;;20.34;54.76;98609.34;5052093;28;20146;-70
2022/09/07 10:06:03;;;;;;;8.45;5.70;;;;;;;20.36;54.49;98610.63;5052963;28;20500;-70
2022/09/07 10:08:31;;;;;;;9.63;5.50;;;;;;;20.45;54.72;98609.59;5052652;28;20029;-70
2022/09/07 10:11:08;;;;;;;7.18;5.18;;;;;;;20.52;54.94;98605.03;5053098;28;20025;-70
2022/09/07 10:13:40;;;;;;;7.85;5.45;;;;;;;20.62;54.82;98606.47;5052678;28;20048;-71
2022/09/07 10:16:07;;;;;;;9.13;5.38;;;;;;;20.72;54.94;98599.53;5052636;28;20436;-74
2022/09/07 10:18:40;;;;;;;8.40;5.70;;;;;;;20.81;54.56;98593.78;5052437;28;20385;-74
2022/09/07 10:21:27;;;;;;;8.68;5.70;;;;;;;20.89;54.40;98592.78;5051873;28;20047;-75
2022/09/07 10:24:04;;;;;;;5.95;4.22;;;;;;;20.95;54.19;98590.56;5051000;28;20017;-75
2022/09/07 10:26:37;;;;;;;8.90;5.00;;;;;;;21.00;54.27;98587.47;5052058;28;20434;-74
2022/09/07 10:29:13;;;;;;;7.90;5.32;;;;;;;21.09;54.23;98598.44;5052280;28;20021;-74
2022/09/07 10:31:47;;;;;;;10.63;5.65;;;;;;;21.18;54.65;98603.81;5051190;28;20029;-75
2022/09/07 10:34:38;;;;;;;7.63;5.28;;;;;;;21.31;54.63;98596.13;5049568;28;20060;-74
2022/09/07 10:37:07;;;;;;;7.15;5.10;;;;;;;21.38;54.08;98604.63;5052123;28;20040;-75
2022/09/07 10:39:56;;;;;;;7.65;5.05;;;;;;;21.44;54.02;98596.78;5051170;28;20476;-76
2022/09/07 10:42:29;;;;;;;6.25;5.13;;;;;;;21.54;54.44;98596.19;5045152;28;20422;-75
2022/09/07 10:45:07;;;;;;;7.88;5.28;;;;;;;21.64;54.58;98598.44;5049537;28;20041;-74
2022/09/07 10:47:59;;;;;;;5.80;4.90;;;;;;;21.75;54.10;98593.06;5049746;28;20051;-76
2022/09/07 10:50:24;;;;;;;7.15;5.50;;;;;;;21.83;53.81;98592.03;5047084;28;20469;-75
2022/09/07 10:53:11;;;;;;;9.10;5.20;;;;;;;21.90;53.82;98594.16;5049931;28;20036;-75
2022/09/07 10:55:41;;;;;;;7.40;4.85;;;;;;;21.98;53.72;98584.75;5050281;28;20047;-73
2022/09/07 10:58:33;;;;;;;7.72;5.22;;;;;;;22.08;53.88;98586.13;5050841;28;20469;-74
2022/09/07 11:01:31;;;;;;;6.75;4.82;;;;;;;22.16;53.65;98576.69;5034861;28;20110;-73
2022/09/07 11:04:19;;;;;;;6.50;4.57;;;;;;;22.26;53.57;98574.47;5041929;28;20056;-73
2022/09/07 11:06:51;;;;;;;5.50;4.63;;;;;;;22.34;53.24;98579.00;5048764;28;20127;-72
2022/09/07 11:09:33;;;;;;;8.18;4.88;;;;;;;22.41;53.17;98581.09;5050571;28;20041;-73
2022/09/07 11:12:18;;;;;;;6.60;5.10;;;;;;;22.53;53.44;98585.72;5050696;28;20029;-73
2022/09/07 11:14:55;;;;;;;6.45;4.57;;;;;;;22.65;53.43;98584.72;5050421;28;20021;-74
2022/09/07 11:17:26;;;;;;;6.68;4.93;;;;;;;22.70;53.15;98584.41;5050722;28;20488;-74
2022/09/07 11:20:22;;;;;;;6.85;4.80;;;;;;;22.81;53.34;98574.19;5048265;28;20036;-73
2022/09/07 11:22:54;;;;;;;6.68;4.82;;;;;;;22.87;52.79;98572.69;5048312;28;20029;-73
2022/09/07 11:25:43;;;;;;;9.75;5.20;;;;;;;22.89;52.54;98581.53;5049892;28;20021;-72
2022/09/07 11:28:25;;;;;;;7.35;4.90;;;;;;;22.97;52.64;98562.06;5050560;28;20033;-73
2022/09/07 11:30:57;;;;;;;6.32;4.55;;;;;;;23.00;52.19;98564.88;5050900;28;20037;-72
2022/09/07 11:33:54;;;;;;;5.10;4.60;;;;;;;23.02;52.27;98562.53;5047945;28;20025;-73
2022/09/07 11:36:22;;;;;;;10.25;4.97;;;;;;;23.03;51.35;98564.13;5029571;28;20109;-73
2022/09/07 11:38:58;;;;;;;6.78;4.80;;;;;;;23.04;51.30;98557.34;5045349;28;20039;-77
2022/09/07 11:41:28;;;;;;;7.22;4.35;;;;;;;23.12;51.63;98561.06;5044726;28;20025;-72
2022/09/07 11:44:16;;;;;;;6.10;4.70;;;;;;;23.15;51.32;98563.09;5045738;28;20488;-72
2022/09/07 11:46:52;;;;;;;8.55;4.78;;;;;;;23.21;51.55;98563.59;5045607;28;20049;-73
2022/09/07 11:49:20;;;;;;;5.68;5.03;;;;;;;23.30;51.82;98564.13;5047385;28;20035;-75
2022/09/07 11:51:57;;;;;;;6.35;4.93;;;;;;;23.42;51.69;98563.09;5048178;28;20029;-73
2022/09/07 11:54:47;;;;;;;5.75;4.75;;;;;;;23.48;51.14;98549.56;5047814;28;20031;-73